Time;durP1;ratioP1;P1;durP2;ratioP2;P2;SDS_P1;SDS_P2;PMS_P1;PMS_P2;Temp;Humidity;BMP_temperature;BMP_pressure;BME280_temperature;BME280_humidity;BME280_pressure;Samples;Min_cycle;Max_cycle;Signal;HPM_P1;HPM_P2
2021/12/04 00:00:13;;;;;;;9.88;1.80;;;4.10;99.90;;;;;;4961118;28;20047;-86
2021/12/04 00:02:39;;;;;;;3.20;1.75;;;;;;;;;;4977271;28;20062;-86
2021/12/04 00:05:06;;;;;;;1.20;1.10;;;4.10;99.90;;;;;;4971219;28;20042;-87
2021/12/04 00:07:33;;;;;;;1.10;1.10;;;4.10;99.90;;;;;;4970033;28;20097;-87
2021/12/04 00:10:03;;;;;;;1.58;1.48;;;4.60;99.90;;;;;;4979844;28;20106;-87
2021/12/04 00:12:33;;;;;;;1.20;1.10;;;4.10;99.90;;;;;;4967931;28;20054;-87
2021/12/04 00:15:00;;;;;;;2.10;1.92;;;4.10;99.90;;;;;;4957799;28;20039;-87
2021/12/04 00:17:26;;;;;;;1.60;1.50;;;4.10;99.90;;;;;;4961870;28;20731;-87
2021/12/04 00:19:52;;;;;;;0.95;0.95;;;4.10;99.90;;;;;;4952880;28;20098;-86
2021/12/04 00:22:18;;;;;;;2.45;2.13;;;4.10;99.90;;;;;;4955599;28;20043;-87
2021/12/04 00:24:44;;;;;;;1.58;1.33;;;3.90;99.90;;;;;;4946024;29;20547;-86
2021/12/04 00:27:09;;;;;;;1.77;1.55;;;4.10;99.90;;;;;;4953686;28;20449;-86
2021/12/04 00:29:35;;;;;;;1.52;1.42;;;;;;;;;;4958608;28;20034;-86
2021/12/04 00:32:09;;;;;;;0.70;0.70;;;4.10;99.90;;;;;;4955261;28;20069;-86
2021/12/04 00:34:39;;;;;;;1.85;1.75;;;4.20;99.90;;;;;;4949308;29;20520;-87
2021/12/04 00:37:35;;;;;;;1.40;1.30;;;4.50;99.90;;;;;;4960321;28;20049;-86
2021/12/04 00:51:00;;;;;;;;;;;4.00;99.90;;;;;;4966510;28;20047;-85
2021/12/04 00:53:26;;;;;;;2.05;1.85;;;4.10;99.90;;;;;;4967035;28;20299;-86
2021/12/04 00:55:51;;;;;;;0.90;0.90;;;4.20;99.90;;;;;;4952209;29;20085;-86
2021/12/04 00:58:17;;;;;;;0.90;0.90;;;4.30;99.90;;;;;;4960345;28;20069;-86
2021/12/04 01:00:43;;;;;;;0.98;0.98;;;4.20;99.90;;;;;;4955737;28;20047;-86
2021/12/04 01:03:09;;;;;;;1.70;1.58;;;;;;;;;;4969850;28;20043;-86
2021/12/04 01:05:35;;;;;;;1.45;1.35;;;4.00;99.90;;;;;;4973587;28;20050;-86
2021/12/04 01:08:00;;;;;;;2.22;1.40;;;4.10;99.90;;;;;;4963935;28;20046;-86
2021/12/04 01:10:26;;;;;;;1.20;1.10;;;4.00;99.90;;;;;;4967930;28;20101;-86
2021/12/04 01:13:10;;;;;;;1.15;1.10;;;4.00;99.90;;;;;;4967151;28;20043;-87
2021/12/04 01:15:44;;;;;;;1.42;1.33;;;4.10;99.90;;;;;;4946604;29;20129;-87
2021/12/04 01:18:11;;;;;;;0.70;0.70;;;4.10;99.90;;;;;;4960289;28;20074;-87
2021/12/04 01:20:37;;;;;;;1.27;1.15;;;4.00;99.90;;;;;;4946986;29;20035;-87
2021/12/04 01:23:03;;;;;;;1.48;1.08;;;4.10;99.90;;;;;;4954832;28;20069;-87
2021/12/04 01:25:29;;;;;;;1.33;1.17;;;4.00;99.90;;;;;;4958810;29;20098;-86
2021/12/04 01:27:54;;;;;;;1.63;1.20;;;4.00;99.90;;;;;;4951896;28;20043;-87
2021/12/04 01:30:20;;;;;;;0.70;0.70;;;4.20;99.90;;;;;;4947352;29;20047;-86
2021/12/04 01:32:45;;;;;;;1.25;1.15;;;4.20;99.90;;;;;;4960473;28;20043;-87
2021/12/04 01:35:11;;;;;;;1.88;1.30;;;4.00;99.90;;;;;;4969675;28;20050;-87
2021/12/04 01:37:37;;;;;;;2.15;1.33;;;;;;;;;;4955309;28;20511;-87
2021/12/04 01:40:05;;;;;;;0.80;0.80;;;4.00;99.90;;;;;;4953500;28;20044;-87
2021/12/04 01:42:34;;;;;;;1.48;1.38;;;4.00;99.90;;;;;;4971357;28;20042;-87
2021/12/04 01:45:00;;;;;;;1.85;1.33;;;4.00;99.90;;;;;;4970144;28;20050;-87
2021/12/04 01:47:26;;;;;;;1.23;1.13;;;4.20;99.90;;;;;;4967409;28;20078;-87
2021/12/04 01:49:53;;;;;;;1.70;1.08;;;4.10;99.90;;;;;;4956991;29;20039;-86
2021/12/04 01:52:19;;;;;;;2.05;1.25;;;4.00;99.90;;;;;;4965137;28;20061;-87
2021/12/04 01:54:46;;;;;;;1.45;1.35;;;4.10;99.90;;;;;;4952727;28;20177;-87
2021/12/04 01:57:14;;;;;;;1.30;1.17;;;4.00;99.90;;;;;;4959830;28;20039;-87
2021/12/04 01:59:41;;;;;;;4.00;2.20;;;4.00;99.90;;;;;;4956145;28;20051;-87
2021/12/04 02:02:07;;;;;;;1.42;1.33;;;4.00;99.90;;;;;;4958705;28;20043;-87
2021/12/04 02:04:32;;;;;;;2.55;2.35;;;4.20;99.90;;;;;;4959657;28;20454;-86
2021/12/04 02:07:02;;;;;;;0.93;0.93;;;4.00;99.90;;;;;;4964816;28;20133;-87
2021/12/04 02:09:28;;;;;;;0.68;0.68;;;4.00;99.90;;;;;;4966668;28;20463;-88
2021/12/04 02:11:54;;;;;;;1.02;1.02;;;4.00;99.90;;;;;;4961278;28;20631;-88
2021/12/04 02:14:20;;;;;;;0.70;0.70;;;4.00;99.90;;;;;;4961375;28;20039;-88
2021/12/04 02:16:45;;;;;;;4.55;1.52;;;4.00;99.90;;;;;;4972127;28;20051;-86
2021/12/04 02:19:13;;;;;;;0.70;0.70;;;4.00;99.90;;;;;;4962129;28;20091;-87
2021/12/04 02:21:38;;;;;;;2.15;1.27;;;4.00;99.90;;;;;;4966108;28;20097;-87
2021/12/04 02:24:04;;;;;;;1.63;1.52;;;4.00;99.90;;;;;;4957638;28;20126;-87
2021/12/04 02:26:30;;;;;;;2.83;2.63;;;4.00;99.90;;;;;;4957443;28;20051;-87
2021/12/04 02:28:57;;;;;;;2.30;1.92;;;4.00;99.90;;;;;;4973878;28;20104;-86
2021/12/04 02:31:23;;;;;;;1.00;1.00;;;4.70;99.90;;;;;;4975983;28;20057;-87
2021/12/04 02:33:48;;;;;;;0.90;0.90;;;4.00;99.90;;;;;;4966888;28;20074;-87
2021/12/04 02:36:14;;;;;;;0.70;0.70;;;4.10;99.90;;;;;;4961948;28;20047;-86
2021/12/04 02:38:40;;;;;;;0.90;0.90;;;4.10;99.90;;;;;;4977367;28;20055;-87
2021/12/04 02:41:08;;;;;;;1.00;1.00;;;4.10;99.90;;;;;;4972380;28;20098;-87
2021/12/04 02:43:34;;;;;;;0.90;0.88;;;4.10;99.90;;;;;;4947861;28;20043;-87
2021/12/04 02:46:00;;;;;;;1.50;1.35;;;4.10;99.90;;;;;;4953467;28;20049;-87
2021/12/04 02:48:26;;;;;;;0.90;0.90;;;4.00;99.90;;;;;;4968662;28;20066;-87
2021/12/04 02:50:52;;;;;;;0.73;0.73;;;4.10;99.90;;;;;;4963840;28;20116;-86
2021/12/04 02:53:18;;;;;;;0.73;0.73;;;4.10;99.90;;;;;;4972749;28;20415;-87
2021/12/04 02:55:44;;;;;;;0.68;0.68;;;4.00;99.90;;;;;;4976955;28;20163;-87
2021/12/04 02:58:10;;;;;;;0.70;0.70;;;4.10;99.90;;;;;;4956465;28;20043;-87
2021/12/04 03:00:41;;;;;;;0.70;0.70;;;4.10;99.90;;;;;;4971407;28;20482;-87
2021/12/04 03:03:07;;;;;;;1.13;0.90;;;4.10;99.90;;;;;;4959603;28;20485;-86
2021/12/04 03:05:33;;;;;;;1.40;1.30;;;4.10;99.90;;;;;;4968866;28;20051;-87
2021/12/04 03:07:59;;;;;;;1.42;1.33;;;4.50;99.90;;;;;;4969522;28;20046;-87
2021/12/04 03:10:25;;;;;;;0.90;0.90;;;4.20;99.90;;;;;;4968331;28;20103;-87
2021/12/04 03:12:51;;;;;;;1.75;1.65;;;3.90;99.90;;;;;;4968717;28;20055;-87
2021/12/04 03:15:17;;;;;;;2.38;1.75;;;4.20;99.90;;;;;;4969991;28;20050;-86
2021/12/04 03:17:43;;;;;;;1.75;1.25;;;4.10;99.90;;;;;;4956738;28;20039;-85
2021/12/04 03:20:10;;;;;;;0.98;0.98;;;4.10;99.90;;;;;;4965273;28;20519;-87
2021/12/04 03:22:37;;;;;;;0.80;0.80;;;4.10;99.90;;;;;;4955149;28;20038;-86
2021/12/04 03:25:03;;;;;;;2.70;1.02;;;4.20;99.90;;;;;;4961791;28;20047;-85
2021/12/04 03:27:31;;;;;;;1.25;1.15;;;4.10;99.90;;;;;;4958593;28;20054;-87
2021/12/04 03:30:04;;;;;;;1.20;1.13;;;4.20;99.90;;;;;;4980790;28;20035;-86
2021/12/04 03:35:25;;;;;;;0.80;0.80;;;4.20;99.90;;;;;;4973219;28;20078;-86
2021/12/04 03:40:39;;;;;;;1.17;1.10;;;4.10;99.90;;;;;;4975620;28;20082;-86
2021/12/04 03:43:08;;;;;;;0.80;0.80;;;4.10;99.90;;;;;;4957812;28;20172;-87
2021/12/04 03:45:36;;;;;;;0.90;0.90;;;4.10;99.90;;;;;;4950652;28;20057;-87
2021/12/04 03:48:08;;;;;;;3.63;1.30;;;4.40;99.90;;;;;;4971498;28;20039;-86
2021/12/04 03:50:34;;;;;;;0.80;0.80;;;4.00;99.90;;;;;;4963252;28;20074;-86
2021/12/04 03:53:00;;;;;;;2.40;1.58;;;4.00;99.90;;;;;;4960895;28;20038;-86
2021/12/04 03:55:26;;;;;;;1.20;1.10;;;4.00;99.90;;;;;;4963786;28;20049;-87
2021/12/04 03:57:53;;;;;;;1.38;1.27;;;4.00;99.90;;;;;;4957075;28;20042;-86
2021/12/04 04:00:19;;;;;;;0.60;0.60;;;4.30;99.90;;;;;;4960754;28;20148;-87
2021/12/04 04:02:45;;;;;;;0.80;0.80;;;4.40;99.90;;;;;;4960073;28;20043;-87
2021/12/04 04:05:11;;;;;;;0.90;0.90;;;4.00;99.90;;;;;;4959621;28;20138;-84
2021/12/04 04:07:37;;;;;;;1.10;1.05;;;4.10;99.90;;;;;;4949938;28;20046;-86
2021/12/04 04:10:07;;;;;;;0.93;0.93;;;4.10;99.90;;;;;;4959185;28;20479;-86
2021/12/04 04:12:33;;;;;;;0.90;0.90;;;;;;;;;;4975489;28;20043;-86
2021/12/04 04:14:59;;;;;;;2.35;1.38;;;4.00;99.90;;;;;;4963128;28;20066;-86
2021/12/04 04:17:30;;;;;;;1.08;1.05;;;3.80;99.90;;;;;;4959323;28;20047;-86
2021/12/04 04:19:56;;;;;;;2.10;1.52;;;;;;;;;;4950453;28;20087;-86
2021/12/04 04:22:22;;;;;;;1.20;1.10;;;4.00;99.90;;;;;;4969014;28;20149;-86
2021/12/04 04:24:47;;;;;;;0.90;0.90;;;4.10;99.90;;;;;;4977827;28;20063;-86
2021/12/04 04:27:13;;;;;;;1.00;0.90;;;4.40;99.90;;;;;;4989710;28;20082;-87
2021/12/04 04:29:39;;;;;;;0.82;0.82;;;4.30;99.90;;;;;;4965371;28;20123;-86
2021/12/04 04:32:04;;;;;;;0.70;0.70;;;4.20;99.90;;;;;;4963422;28;20045;-86
2021/12/04 04:34:36;;;;;;;1.70;1.60;;;4.00;99.90;;;;;;4974923;28;20054;-86
2021/12/04 04:37:21;;;;;;;0.77;0.77;;;4.00;99.90;;;;;;4961630;28;20130;-86
2021/12/04 04:40:21;;;;;;;1.00;1.00;;;3.90;99.90;;;;;;4979787;28;20047;-86
2021/12/04 04:59:15;;;;;;;0.80;0.80;;;4.00;99.90;;;;;;4970683;28;20051;-86
2021/12/04 05:02:19;;;;;;;0.90;0.90;;;4.20;99.90;;;;;;4955834;28;20046;-87
2021/12/04 05:10:36;;;;;;;1.13;1.13;;;4.10;99.90;;;;;;4971210;28;20114;-86
2021/12/04 05:13:05;;;;;;;0.90;0.90;;;3.90;99.90;;;;;;4950429;28;20111;-86
2021/12/04 05:18:51;;;;;;;1.27;1.17;;;4.20;99.90;;;;;;4966504;28;20051;-87
2021/12/04 05:21:06;;;;;;;0.77;0.77;;;4.00;99.90;;;;;;4966904;28;20058;-87
2021/12/04 05:23:42;;;;;;;0.70;0.70;;;4.00;99.90;;;;;;4970049;28;20109;-87
2021/12/04 05:26:10;;;;;;;1.20;1.13;;;4.00;99.90;;;;;;4963208;28;20047;-86
2021/12/04 05:28:36;;;;;;;1.60;1.27;;;4.00;99.90;;;;;;4962536;28;20109;-86
2021/12/04 05:31:02;;;;;;;0.70;0.70;;;4.00;99.90;;;;;;4944229;28;20444;-86
2021/12/04 05:33:28;;;;;;;1.20;1.00;;;4.00;99.90;;;;;;4959357;28;20474;-87
2021/12/04 05:35:54;;;;;;;0.88;0.88;;;4.00;99.90;;;;;;4975830;28;20474;-86
2021/12/04 05:38:20;;;;;;;0.80;0.80;;;4.00;99.90;;;;;;4970465;28;20043;-86
2021/12/04 05:40:46;;;;;;;0.80;0.80;;;4.10;99.90;;;;;;4973836;28;20050;-86
2021/12/04 05:43:13;;;;;;;0.70;0.70;;;4.80;99.90;;;;;;4967904;28;20050;-86
2021/12/04 05:45:44;;;;;;;1.05;1.05;;;4.00;99.90;;;;;;4957273;29;20130;-86
2021/12/04 05:48:30;;;;;;;1.05;0.95;;;4.00;99.90;;;;;;4964605;28;20488;-87
2021/12/04 05:53:57;;;;;;;1.00;1.00;;;4.00;99.90;;;;;;4960304;28;20058;-86
2021/12/04 05:56:23;;;;;;;0.70;0.70;;;3.90;99.90;;;;;;4957227;28;20062;-86
2021/12/04 05:58:49;;;;;;;0.75;0.75;;;4.00;99.90;;;;;;4966234;28;20055;-86
2021/12/04 06:01:16;;;;;;;1.08;1.08;;;4.00;99.90;;;;;;4972201;28;20488;-86
2021/12/04 06:03:42;;;;;;;1.02;0.95;;;4.20;99.90;;;;;;4956252;28;20464;-86
2021/12/04 06:06:08;;;;;;;0.70;0.70;;;4.00;99.90;;;;;;4975523;28;20073;-85
2021/12/04 06:08:34;;;;;;;0.82;0.82;;;3.90;99.90;;;;;;4959782;28;20090;-86
2021/12/04 06:11:00;;;;;;;1.65;1.10;;;3.90;99.90;;;;;;4972902;28;20047;-86
2021/12/04 06:13:26;;;;;;;0.95;0.88;;;3.90;99.90;;;;;;4975320;28;20062;-86
2021/12/04 06:15:53;;;;;;;0.73;0.73;;;3.90;99.90;;;;;;4960610;28;20058;-86
2021/12/04 06:18:20;;;;;;;0.77;0.77;;;4.00;99.90;;;;;;4952298;28;20071;-87
2021/12/04 06:23:32;;;;;;;1.60;1.10;;;3.90;99.90;;;;;;4970056;28;20424;-86
2021/12/04 06:25:58;;;;;;;0.80;0.80;;;4.00;99.90;;;;;;4972246;28;20626;-87
2021/12/04 06:28:24;;;;;;;0.70;0.70;;;3.90;99.90;;;;;;4964426;28;20131;-87
2021/12/04 06:30:51;;;;;;;3.08;1.05;;;4.00;99.90;;;;;;4962924;28;20038;-87
2021/12/04 06:33:17;;;;;;;0.80;0.80;;;4.00;99.90;;;;;;4966864;28;20106;-87
2021/12/04 06:35:43;;;;;;;0.70;0.70;;;3.90;99.90;;;;;;4978731;28;20162;-87
2021/12/04 06:38:11;;;;;;;0.95;0.95;;;3.90;99.90;;;;;;4979958;28;20054;-86
2021/12/04 06:40:38;;;;;;;0.70;0.70;;;3.90;99.90;;;;;;4982274;28;20126;-87
2021/12/04 06:43:04;;;;;;;1.27;1.23;;;4.00;99.90;;;;;;4966725;28;20408;-86
2021/12/04 06:45:33;;;;;;;0.90;0.90;;;3.90;99.90;;;;;;4953711;28;20102;-86
2021/12/04 06:48:05;;;;;;;1.25;1.15;;;3.90;99.90;;;;;;4956103;29;20519;-86
2021/12/04 06:50:40;;;;;;;0.70;0.70;;;3.90;99.90;;;;;;4963845;28;20054;-86
2021/12/04 06:55:42;;;;;;;0.70;0.70;;;3.90;99.90;;;;;;4978658;28;20160;-87
2021/12/04 06:58:08;;;;;;;0.90;0.90;;;4.00;99.90;;;;;;4960822;28;20550;-86
2021/12/04 07:00:34;;;;;;;0.70;0.70;;;4.20;99.90;;;;;;4974422;28;20043;-86
2021/12/04 07:03:00;;;;;;;0.70;0.70;;;4.50;99.90;;;;;;4969027;28;20043;-87
2021/12/04 07:05:26;;;;;;;1.15;1.05;;;4.20;99.90;;;;;;4955226;28;20047;-86
2021/12/04 07:07:52;;;;;;;0.80;0.80;;;4.10;99.90;;;;;;4958455;28;20038;-86
2021/12/04 07:10:17;;;;;;;1.00;1.00;;;4.00;99.90;;;;;;4965558;28;20538;-86
2021/12/04 07:12:43;;;;;;;1.05;1.00;;;4.00;99.90;;;;;;4965283;28;20051;-85
2021/12/04 07:15:10;;;;;;;0.70;0.70;;;4.00;99.90;;;;;;4959932;28;20062;-85
2021/12/04 07:17:36;;;;;;;0.80;0.80;;;4.20;99.90;;;;;;4951086;28;20054;-86
2021/12/04 07:20:05;;;;;;;0.70;0.70;;;4.00;99.90;;;;;;4956999;28;20052;-84
2021/12/04 07:22:30;;;;;;;0.98;0.95;;;4.00;99.90;;;;;;4975561;28;20043;-86
2021/12/04 07:24:57;;;;;;;0.70;0.70;;;4.00;99.90;;;;;;4959981;28;20043;-86
2021/12/04 07:27:23;;;;;;;0.70;0.70;;;4.00;99.90;;;;;;4969081;28;20047;-86
2021/12/04 07:29:49;;;;;;;0.90;0.90;;;4.00;99.90;;;;;;4970613;28;20090;-85
2021/12/04 07:32:14;;;;;;;1.00;1.00;;;4.00;99.90;;;;;;4954811;28;20058;-85
2021/12/04 07:34:40;;;;;;;0.70;0.70;;;4.00;99.90;;;;;;4954158;28;20118;-86
2021/12/04 07:37:05;;;;;;;1.00;1.00;;;3.90;99.90;;;;;;4958577;28;20041;-85
2021/12/04 07:39:31;;;;;;;0.70;0.70;;;4.00;99.90;;;;;;4972008;28;20110;-86
2021/12/04 07:41:57;;;;;;;0.70;0.70;;;4.00;99.90;;;;;;4970869;28;20098;-87
2021/12/04 07:44:23;;;;;;;0.80;0.80;;;4.00;99.90;;;;;;4974913;28;20046;-86
2021/12/04 07:46:48;;;;;;;4.25;1.52;;;4.00;99.90;;;;;;4971001;28;20055;-87
2021/12/04 07:49:14;;;;;;;0.90;0.90;;;4.00;99.90;;;;;;4963937;28;20205;-87
2021/12/04 07:51:40;;;;;;;0.90;0.90;;;4.00;99.90;;;;;;4961347;28;20043;-85
2021/12/04 07:54:05;;;;;;;0.88;0.88;;;4.00;99.90;;;;;;4959645;28;20047;-85
2021/12/04 07:56:31;;;;;;;1.00;1.00;;;4.00;99.90;;;;;;4964995;28;20055;-86
2021/12/04 07:58:58;;;;;;;0.63;0.63;;;4.00;99.90;;;;;;4976486;28;20030;-86
2021/12/04 08:01:24;;;;;;;0.70;0.70;;;4.00;99.90;;;;;;4958167;28;20103;-86
2021/12/04 08:03:49;;;;;;;0.93;0.85;;;4.00;99.90;;;;;;4964458;28;20043;-86
2021/12/04 08:06:15;;;;;;;1.00;0.90;;;4.00;99.90;;;;;;4969849;28;20081;-86
2021/12/04 08:08:41;;;;;;;0.70;0.70;;;4.00;99.90;;;;;;4973318;28;20054;-86
2021/12/04 08:11:06;;;;;;;0.77;0.77;;;4.00;99.90;;;;;;4978119;28;20045;-86
2021/12/04 08:13:32;;;;;;;0.70;0.70;;;4.00;99.90;;;;;;4979329;28;20039;-85
2021/12/04 08:15:58;;;;;;;1.25;1.05;;;4.00;99.90;;;;;;4975727;28;20055;-86
2021/12/04 08:18:23;;;;;;;1.25;1.15;;;4.00;99.90;;;;;;4955431;28;20146;-86
2021/12/04 08:20:50;;;;;;;0.70;0.70;;;4.00;99.90;;;;;;4956494;28;20043;-86
2021/12/04 08:23:17;;;;;;;0.77;0.77;;;4.00;99.90;;;;;;4960297;29;20043;-86
2021/12/04 08:25:43;;;;;;;0.80;0.80;;;4.00;99.90;;;;;;4962259;28;20197;-86
2021/12/04 08:28:09;;;;;;;0.90;0.90;;;4.10;99.90;;;;;;4956401;28;20047;-85
2021/12/04 08:30:40;;;;;;;0.80;0.80;;;4.00;99.90;;;;;;4974402;28;20066;-87
2021/12/04 08:33:05;;;;;;;0.68;0.68;;;4.00;99.90;;;;;;4959516;28;20149;-88
2021/12/04 08:35:35;;;;;;;0.82;0.82;;;4.00;99.90;;;;;;4965103;28;20141;-88
2021/12/04 08:38:01;;;;;;;0.60;0.60;;;4.10;99.90;;;;;;4964657;28;20042;-87
2021/12/04 08:40:28;;;;;;;0.80;0.80;;;4.10;99.90;;;;;;4971679;28;20043;-87
2021/12/04 08:42:55;;;;;;;1.30;1.17;;;4.10;99.90;;;;;;4948590;29;20515;-87
2021/12/04 08:45:20;;;;;;;1.05;1.00;;;4.10;99.90;;;;;;4955575;28;20077;-87
2021/12/04 08:47:47;;;;;;;2.35;1.73;;;4.10;99.90;;;;;;4957189;28;20043;-87
2021/12/04 08:50:16;;;;;;;0.70;0.70;;;4.10;99.90;;;;;;4952604;28;20034;-87
2021/12/04 08:52:43;;;;;;;0.70;0.70;;;4.10;99.90;;;;;;4947797;29;20059;-87
2021/12/04 08:55:10;;;;;;;0.82;0.82;;;4.10;99.90;;;;;;4978128;28;20065;-87
2021/12/04 08:57:36;;;;;;;1.63;1.25;;;4.10;99.90;;;;;;4965735;28;20550;-88
2021/12/04 09:00:08;;;;;;;0.80;0.80;;;4.30;99.90;;;;;;4963477;28;20035;-88
2021/12/04 09:02:34;;;;;;;0.70;0.70;;;4.10;99.90;;;;;;4964684;28;20039;-87
2021/12/04 09:05:00;;;;;;;1.35;1.30;;;4.10;99.90;;;;;;4961773;28;20142;-87
2021/12/04 09:07:26;;;;;;;0.70;0.70;;;4.10;99.90;;;;;;4974641;28;20066;-87
2021/12/04 09:09:55;;;;;;;0.80;0.80;;;4.20;99.90;;;;;;4957017;28;20166;-88
2021/12/04 09:12:24;;;;;;;0.93;0.93;;;4.20;99.90;;;;;;4961818;28;20055;-86
2021/12/04 09:14:50;;;;;;;0.70;0.70;;;4.20;99.90;;;;;;4974739;28;20046;-87
2021/12/04 09:17:18;;;;;;;0.88;0.88;;;4.20;99.90;;;;;;4962403;28;20047;-87
2021/12/04 09:19:44;;;;;;;1.65;0.93;;;4.20;99.90;;;;;;4951937;28;20042;-87
2021/12/04 09:22:24;;;;;;;0.93;0.93;;;4.20;99.90;;;;;;4964713;28;20051;-85
2021/12/04 09:24:54;;;;;;;0.85;0.85;;;4.20;99.90;;;;;;4962880;28;20629;-87
2021/12/04 09:27:36;;;;;;;0.60;0.60;;;4.20;99.90;;;;;;4965393;28;20043;-87
2021/12/04 09:35:21;;;;;;;0.82;0.82;;;4.30;99.90;;;;;;4965981;28;20075;-86
2021/12/04 10:00:40;;;;;;;0.70;0.70;;;4.50;99.90;;;;;;4980217;28;20065;-87
2021/12/04 10:03:40;;;;;;;0.60;0.60;;;4.80;99.90;;;;;;4958576;28;20039;-88
2021/12/04 10:11:52;;;;;;;0.60;0.60;;;4.60;99.90;;;;;;4975321;28;20109;-88
2021/12/04 10:17:41;;;;;;;;;;;4.70;99.90;;;;;;4976706;28;20047;-87
2021/12/04 10:20:32;;;;;;;0.68;0.68;;;4.70;99.90;;;;;;4963381;28;19990;-87
2021/12/04 10:23:23;;;;;;;0.80;0.80;;;4.80;99.90;;;;;;4955961;28;20050;-87
2021/12/04 10:34:12;;;;;;;1.00;0.93;;;4.80;99.90;;;;;;4972338;28;20170;-87
2021/12/04 10:36:39;;;;;;;0.70;0.70;;;4.80;99.90;;;;;;4975021;28;20051;-86
2021/12/04 10:39:08;;;;;;;0.60;0.60;;;4.80;99.90;;;;;;4955413;28;20031;-87
2021/12/04 10:41:41;;;;;;;1.17;1.08;;;4.80;99.90;;;;;;4977336;28;20071;-87
2021/12/04 10:44:21;;;;;;;1.10;1.00;;;4.80;99.90;;;;;;4973756;28;20051;-87
2021/12/04 10:46:57;;;;;;;0.73;0.73;;;4.90;99.90;;;;;;4959311;28;20066;-86
2021/12/04 10:49:37;;;;;;;1.08;1.05;;;4.90;99.90;;;;;;4963932;28;20039;-86
2021/12/04 10:52:05;;;;;;;0.70;0.70;;;4.90;99.90;;;;;;4975060;28;20055;-86
2021/12/04 10:54:38;;;;;;;0.80;0.80;;;4.90;99.90;;;;;;4963106;28;20045;-86
2021/12/04 11:00:07;;;;;;;0.80;0.80;;;5.00;99.90;;;;;;4965632;28;19966;-87
2021/12/04 11:02:40;;;;;;;0.70;0.70;;;5.00;99.90;;;;;;4956206;28;20246;-86
2021/12/04 11:22:30;;;;;;;0.60;0.60;;;5.10;99.90;;;;;;4979485;28;20061;-85
2021/12/04 11:42:19;;;;;;;1.00;1.00;;;5.10;99.90;;;;;;4924917;29;20062;-85
2021/12/04 11:44:46;;;;;;;1.08;0.98;;;5.10;99.90;;;;;;4956073;28;20062;-86
2021/12/04 11:47:12;;;;;;;0.93;0.93;;;5.10;99.90;;;;;;4952298;28;20050;-86
2021/12/04 11:49:38;;;;;;;0.70;0.70;;;5.20;99.90;;;;;;4962433;28;20043;-85
2021/12/04 11:52:14;;;;;;;0.68;0.68;;;5.10;99.90;;;;;;4972673;28;20066;-87
2021/12/04 11:54:48;;;;;;;0.80;0.80;;;5.20;99.90;;;;;;4973425;28;20045;-86
2021/12/04 11:57:17;;;;;;;0.60;0.60;;;5.20;99.90;;;;;;4956596;28;20046;-86
2021/12/04 11:59:45;;;;;;;0.88;0.88;;;5.20;99.90;;;;;;4960301;28;20158;-86
2021/12/04 12:02:20;;;;;;;1.02;0.95;;;5.20;99.90;;;;;;4958301;28;20059;-86
2021/12/04 12:04:50;;;;;;;0.80;0.77;;;5.10;99.90;;;;;;4969242;28;20158;-87
2021/12/04 12:07:25;;;;;;;0.70;0.70;;;5.10;99.90;;;;;;4954525;28;20067;-86
2021/12/04 12:10:06;;;;;;;0.82;0.80;;;5.10;99.90;;;;;;4965431;28;20047;-86
2021/12/04 12:12:35;;;;;;;0.70;0.70;;;5.10;99.90;;;;;;4970948;28;20050;-86
2021/12/04 12:15:15;;;;;;;1.95;1.35;;;5.10;99.90;;;;;;4966251;28;20053;-86
2021/12/04 12:17:42;;;;;;;0.60;0.60;;;5.10;99.90;;;;;;4977832;28;20064;-84
2021/12/04 12:20:15;;;;;;;0.80;0.80;;;5.10;99.90;;;;;;4959722;28;20049;-85
2021/12/04 12:22:46;;;;;;;0.73;0.73;;;5.10;99.90;;;;;;4962650;28;20058;-84
2021/12/04 12:25:29;;;;;;;0.80;0.80;;;5.10;99.90;;;;;;4969123;28;20074;-83
2021/12/04 12:34:03;;;;;;;0.90;0.90;;;5.10;99.90;;;;;;4976345;28;20133;-84
2021/12/04 12:36:32;;;;;;;0.77;0.77;;;5.10;99.90;;;;;;4974757;28;20114;-84
2021/12/04 12:39:11;;;;;;;0.80;0.80;;;5.20;99.90;;;;;;4967843;28;20483;-84
2021/12/04 12:41:41;;;;;;;0.70;0.70;;;5.20;99.90;;;;;;4965114;28;20126;-84
2021/12/04 12:44:18;;;;;;;1.02;0.95;;;5.20;99.90;;;;;;4969158;28;20101;-84
2021/12/04 12:46:49;;;;;;;0.90;0.90;;;5.20;99.90;;;;;;4954506;28;20060;-84
2021/12/04 12:49:26;;;;;;;1.92;1.52;;;5.20;99.90;;;;;;4956523;28;20094;-84
2021/12/04 12:52:04;;;;;;;1.25;1.15;;;5.10;99.90;;;;;;4958001;28;20077;-85
2021/12/04 12:55:04;;;;;;;0.80;0.80;;;5.10;99.90;;;;;;4957137;28;20038;-84
2021/12/04 12:57:56;;;;;;;0.90;0.90;;;5.10;99.90;;;;;;4963698;28;20065;-84
2021/12/04 13:14:24;;;;;;;1.33;1.23;;;5.00;99.90;;;;;;4976095;28;20138;-85
2021/12/04 13:17:05;;;;;;;0.65;0.65;;;5.00;99.90;;;;;;4961345;28;20542;-88
2021/12/04 13:19:33;;;;;;;0.80;0.80;;;5.00;99.90;;;;;;4949512;28;20047;-86
2021/12/04 13:22:04;;;;;;;0.60;0.60;;;5.10;99.90;;;;;;4961372;28;20042;-85
2021/12/04 13:24:33;;;;;;;0.60;0.60;;;5.10;99.90;;;;;;4958801;28;20121;-85
2021/12/04 13:29:39;;;;;;;1.02;0.98;;;5.10;99.90;;;;;;4966471;28;20083;-86
2021/12/04 13:32:06;;;;;;;0.70;0.70;;;5.10;99.90;;;;;;4956487;28;20035;-87
2021/12/04 13:34:34;;;;;;;0.60;0.60;;;5.10;99.90;;;;;;4975496;28;20047;-86
2021/12/04 13:37:01;;;;;;;0.70;0.70;;;5.10;99.90;;;;;;4970445;28;20053;-86
2021/12/04 13:39:27;;;;;;;1.25;1.15;;;5.10;99.90;;;;;;4961831;28;20206;-86
2021/12/04 13:41:53;;;;;;;1.10;1.10;;;5.10;99.90;;;;;;4957740;28;20043;-88
2021/12/04 13:44:23;;;;;;;2.78;1.38;;;5.00;99.90;;;;;;4946040;28;20103;-87
2021/12/04 13:46:59;;;;;;;1.13;1.08;;;5.00;99.90;;;;;;4961738;28;20039;-88
2021/12/04 13:49:32;;;;;;;0.80;0.80;;;5.00;99.90;;;;;;4970019;28;20071;-88
2021/12/04 13:52:01;;;;;;;1.58;1.48;;;5.00;99.90;;;;;;4963241;28;20042;-88
2021/12/04 13:54:28;;;;;;;1.00;1.00;;;5.00;99.90;;;;;;4950645;28;20047;-86
2021/12/04 13:56:54;;;;;;;1.48;1.35;;;5.00;99.90;;;;;;4973285;28;20051;-86
2021/12/04 13:59:25;;;;;;;0.73;0.73;;;5.00;99.90;;;;;;4973123;28;20078;-87
2021/12/04 14:01:51;;;;;;;1.25;1.15;;;5.10;99.90;;;;;;4963196;28;20044;-86
2021/12/04 14:04:17;;;;;;;1.10;1.10;;;5.00;99.90;;;;;;4971079;28;20043;-86
2021/12/04 14:06:55;;;;;;;1.13;1.13;;;5.00;99.90;;;;;;4965010;28;20077;-84
2021/12/04 14:09:23;;;;;;;1.40;1.30;;;5.00;99.90;;;;;;4978139;28;20054;-85
2021/12/04 14:11:50;;;;;;;1.58;1.48;;;5.00;99.90;;;;;;4975783;28;20043;-86
2021/12/04 14:14:20;;;;;;;1.52;1.42;;;5.00;99.90;;;;;;4974647;28;20043;-85
2021/12/04 14:16:51;;;;;;;1.10;1.00;;;5.00;99.90;;;;;;4953909;29;20047;-85
2021/12/04 14:19:20;;;;;;;1.73;1.30;;;5.00;99.90;;;;;;4949620;28;20490;-86
2021/12/04 14:21:58;;;;;;;1.13;1.02;;;5.00;99.90;;;;;;4963029;28;20074;-86
2021/12/04 14:24:36;;;;;;;1.80;1.02;;;4.90;99.90;;;;;;4961482;28;20082;-86
2021/12/04 14:27:04;;;;;;;0.82;0.82;;;4.90;99.90;;;;;;4972511;28;20487;-86
2021/12/04 14:29:37;;;;;;;0.85;0.85;;;4.90;99.90;;;;;;4973839;28;20056;-84
2021/12/04 14:32:04;;;;;;;1.30;1.08;;;4.90;99.90;;;;;;4971466;28;20663;-86
2021/12/04 14:34:30;;;;;;;3.25;1.52;;;4.90;99.90;;;;;;4970160;28;20049;-86
2021/12/04 14:37:15;;;;;;;2.10;1.42;;;5.00;99.90;;;;;;4981472;28;20054;-86
2021/12/04 14:39:49;;;;;;;0.70;0.70;;;4.90;99.90;;;;;;4968317;28;20047;-86
2021/12/04 14:42:19;;;;;;;0.70;0.70;;;5.00;99.90;;;;;;4972238;28;20053;-86
2021/12/04 14:44:51;;;;;;;1.33;1.23;;;5.00;99.90;;;;;;4969575;28;20131;-86
2021/12/04 14:47:19;;;;;;;4.93;1.77;;;5.00;99.90;;;;;;4971683;28;20050;-86
2021/12/04 14:49:51;;;;;;;0.80;0.80;;;5.00;99.90;;;;;;4957384;28;20511;-86
2021/12/04 14:52:20;;;;;;;1.25;1.15;;;4.90;99.90;;;;;;4971117;28;20055;-85
2021/12/04 14:54:49;;;;;;;0.98;0.98;;;4.90;99.90;;;;;;4955384;28;20069;-86
2021/12/04 14:57:20;;;;;;;0.90;0.90;;;4.80;99.90;;;;;;4965868;28;20175;-86
2021/12/04 14:59:47;;;;;;;0.70;0.70;;;4.90;99.90;;;;;;4957984;28;20046;-86
2021/12/04 15:02:19;;;;;;;1.02;0.93;;;4.90;99.90;;;;;;4955365;28;20077;-85
2021/12/04 15:04:45;;;;;;;1.20;1.10;;;4.90;99.90;;;;;;4954883;28;20249;-86
2021/12/04 15:07:27;;;;;;;2.47;1.23;;;4.90;99.90;;;;;;4955502;28;20042;-86
2021/12/04 15:09:53;;;;;;;0.98;0.98;;;4.90;99.90;;;;;;4961758;28;20513;-86
2021/12/04 15:12:34;;;;;;;1.17;0.88;;;4.90;99.90;;;;;;4971924;28;20093;-86
2021/12/04 15:15:11;;;;;;;1.13;0.80;;;4.90;99.90;;;;;;4975340;28;20043;-86
2021/12/04 15:17:40;;;;;;;2.08;1.88;;;4.90;99.90;;;;;;4954497;28;20160;-86
2021/12/04 15:20:11;;;;;;;0.70;0.70;;;4.90;99.90;;;;;;4956759;28;20110;-85
2021/12/04 15:22:44;;;;;;;0.90;0.90;;;4.90;99.90;;;;;;4973174;28;20060;-85
2021/12/04 15:25:13;;;;;;;1.00;1.00;;;4.90;99.90;;;;;;4971431;28;20040;-85
2021/12/04 15:27:39;;;;;;;1.55;1.45;;;4.90;99.90;;;;;;4954487;28;20134;-82
2021/12/04 15:30:10;;;;;;;0.80;0.80;;;4.90;99.90;;;;;;4973444;28;20094;-84
2021/12/04 15:32:39;;;;;;;0.93;0.93;;;4.90;99.90;;;;;;4967348;28;20051;-83
2021/12/04 15:35:36;;;;;;;1.55;1.00;;;4.90;99.90;;;;;;4975510;28;20047;-84
2021/12/04 15:38:10;;;;;;;1.17;1.10;;;4.90;99.90;;;;;;4966967;28;20118;-84
2021/12/04 15:41:07;;;;;;;1.05;1.05;;;4.80;99.90;;;;;;4980348;28;20067;-84
2021/12/04 15:54:22;;;;;;;0.90;0.90;;;4.80;99.90;;;;;;4963278;28;20066;-84
2021/12/04 15:56:53;;;;;;;0.80;0.80;;;4.80;99.90;;;;;;4977038;28;20051;-83